createdAt,value
2023-03-21T00:10:04.820Z,29.20
2023-03-21T00:20:15.480Z,28.30
2023-03-21T00:30:21.433Z,29.90
2023-03-21T00:40:35.052Z,37.70
2023-03-21T00:50:45.424Z,26.10
2023-03-21T01:00:52.503Z,45.10
2023-03-21T01:11:02.365Z,102.70
2023-03-21T01:21:07.970Z,39.20
2023-03-21T01:31:15.393Z,42.10
2023-03-21T01:41:22.045Z,34.60
2023-03-21T01:51:27.803Z,28.70
2023-03-21T02:01:35.073Z,41.40
2023-03-21T02:11:46.758Z,31.20
2023-03-21T02:22:08.512Z,35.10
2023-03-21T02:32:36.521Z,32.00
2023-03-21T02:42:59.398Z,31.10
2023-03-21T02:53:12.563Z,28.10
2023-03-21T03:03:33.075Z,34.30
2023-03-21T03:13:42.502Z,28.90
2023-03-21T03:23:50.883Z,29.80
2023-03-21T03:33:59.634Z,32.90
2023-03-21T03:44:06.871Z,34.90
2023-03-21T03:54:15.811Z,27.40
2023-03-21T04:04:29.768Z,28.70
2023-03-21T04:14:44.456Z,26.50
2023-03-21T04:24:52.018Z,27.20
2023-03-21T04:34:59.001Z,24.50
2023-03-21T04:45:07.017Z,26.10
2023-03-21T04:55:14.834Z,26.40
2023-03-21T05:05:19.711Z,24.80
2023-03-21T05:15:26.898Z,20.30
2023-03-21T05:25:34.589Z,19.80
2023-03-21T05:35:41.716Z,20.60
2023-03-21T05:45:48.690Z,21.50
2023-03-21T05:55:56.311Z,16.30
2023-03-21T06:06:03.050Z,18.40
2023-03-21T06:16:11.078Z,18.60
2023-03-21T06:26:19.992Z,25.90
2023-03-21T06:36:27.084Z,26.40
2023-03-21T06:46:34.438Z,37.90
2023-03-21T06:56:42.066Z,19.40
2023-03-21T07:06:49.158Z,22.30
2023-03-21T07:16:57.002Z,21.00
2023-03-21T07:27:04.043Z,23.00
2023-03-21T07:37:11.327Z,21.10
2023-03-21T07:47:18.495Z,20.10
2023-03-21T07:57:24.762Z,20.00
2023-03-21T08:07:34.164Z,22.00
2023-03-21T08:27:49.279Z,26.70
2023-03-21T08:37:56.307Z,33.70
2023-03-21T08:48:03.865Z,31.70
2023-03-21T08:58:09.844Z,33.50
2023-03-21T09:08:17.136Z,26.70
2023-03-21T09:18:44.459Z,27.20
2023-03-21T09:28:53.529Z,27.40
2023-03-21T09:39:01.125Z,23.00
2023-03-21T09:49:13.187Z,23.70
2023-03-21T09:59:21.042Z,32.00
2023-03-21T10:09:32.725Z,22.50
2023-03-21T10:19:39.908Z,19.00
2023-03-21T10:29:47.816Z,20.90
2023-03-21T10:39:56.805Z,19.40
2023-03-21T10:50:08.073Z,19.80
2023-03-21T11:00:23.172Z,19.70
2023-03-21T11:10:30.854Z,19.10
2023-03-21T11:20:44.752Z,16.20
2023-03-21T11:30:54.337Z,13.10
2023-03-21T11:41:03.210Z,12.50
2023-03-21T11:51:14.491Z,13.30
2023-03-21T12:01:20.375Z,12.30
2023-03-21T12:11:25.578Z,14.60
2023-03-21T12:21:32.706Z,12.90
2023-03-21T12:31:41.348Z,15.00
2023-03-21T12:41:54.867Z,13.00
2023-03-21T12:52:05.795Z,12.20
2023-03-21T13:02:23.443Z,13.80
2023-03-21T13:12:34.159Z,13.80
2023-03-21T13:22:41.379Z,14.70
2023-03-21T13:32:50.618Z,12.70
2023-03-21T13:53:20.412Z,17.20
2023-03-21T14:03:31.591Z,15.10
2023-03-21T14:13:50.923Z,16.50
2023-03-21T14:24:00.710Z,14.20
2023-03-21T14:34:11.278Z,15.30
2023-03-21T14:44:22.758Z,14.60
2023-03-21T14:54:31.488Z,14.10
2023-03-21T15:04:38.684Z,11.70
2023-03-21T15:14:46.440Z,13.40
2023-03-21T15:24:59.855Z,14.70
2023-03-21T15:35:06.047Z,17.30
2023-03-21T15:45:24.728Z,16.80
2023-03-21T15:55:29.672Z,12.80
2023-03-21T16:05:37.398Z,14.20
2023-03-21T16:15:45.781Z,18.80
2023-03-21T16:25:52.655Z,16.70
2023-03-21T16:36:00.960Z,18.80
2023-03-21T16:46:06.307Z,15.90
2023-03-21T16:56:14.711Z,16.30
2023-03-21T17:06:24.608Z,15.50
2023-03-21T17:16:32.175Z,19.30
2023-03-21T17:26:39.741Z,18.70
2023-03-21T17:36:49.110Z,17.10
2023-03-21T17:46:56.273Z,18.20
2023-03-21T17:57:03.601Z,17.90
2023-03-21T18:07:14.014Z,19.40
2023-03-21T18:17:23.864Z,21.30
2023-03-21T18:27:32.639Z,28.10
2023-03-21T18:47:47.348Z,26.20
2023-03-21T18:57:54.903Z,29.10
2023-03-21T19:08:01.605Z,37.00
2023-03-21T19:28:32.909Z,44.10
2023-03-21T19:38:41.360Z,60.00
2023-03-21T19:48:50.349Z,58.50
2023-03-21T19:58:57.896Z,79.20
2023-03-21T20:09:47.222Z,93.90
2023-03-21T20:19:32.450Z,101.90
2023-03-21T20:30:10.130Z,98.10
2023-03-21T20:40:10.590Z,105.80
2023-03-21T20:50:22.044Z,105.60
2023-03-21T21:00:30.171Z,139.80
2023-03-21T21:11:04.058Z,134.80
2023-03-21T21:21:04.597Z,98.30
2023-03-21T21:31:16.536Z,82.90
2023-03-21T21:41:24.340Z,86.50
2023-03-21T21:51:34.329Z,86.10
2023-03-21T22:01:42.588Z,84.10
2023-03-21T22:11:50.100Z,77.90
2023-03-21T22:21:57.332Z,84.80
2023-03-21T22:32:04.662Z,88.40
2023-03-21T22:42:12.282Z,75.20
2023-03-21T22:52:19.631Z,76.60
2023-03-21T23:02:25.955Z,60.20
2023-03-21T23:12:33.066Z,46.20
2023-03-21T23:22:40.874Z,38.60
2023-03-21T23:32:48.082Z,38.60
2023-03-21T23:42:56.619Z,50.00
2023-03-21T23:53:03.147Z,59.70
